Terminal Aerodrome Forecast
Issued by NWS Boston, MA

Home | Current Version | Previous Version | Text Only | Print | Product List | Glossary On
Versions: 1 2 3 4 5 6 7 8 9 10 11 12 13 14 15 16 17 18 19 20 21 22 23 24 25 26 27 28
000
FTUS41 KBOX 301920 AAA
TAFORH
TAF AMD
KORH 301920Z 3019/3118 21012KT P6SM SCT035
     FM302045 20010KT 2SM +TSRA BR BKN025 OVC050CB
     FM302200 23009KT P6SM OVC035
     FM310200 25008KT P6SM BKN040
     FM310500 26007KT 5SM BR SCT070=

USA.gov is the U.S. government's official web portal to all federal, state and local government web resources and services.